This is the latest recevied weather packets stored in our database for station/object IU2PLZ-10. If no packets are shown the sender has not sent any weather packets the latest 10 day(s).
| Time | Temp. | Humidity | Pressure | Rain* | Wind** | Luminosity | Snow |
|---|---|---|---|---|---|---|---|
| 1777938477 | 16.67° C | 69% | 966.9 hPa | - | - | - | - |
| 1777937577 | 14.44° C | 68% | 964.2 hPa | - | - | - | - |
| 1777936677 | 17.22° C | 68% | 968.2 hPa | - | - | - | - |
| 1777935776 | 17.22° C | 68% | 968.6 hPa | - | - | - | - |
| 1777934876 | 16.67° C | 68% | 967.8 hPa | - | - | - | - |
| 1777933976 | 17.22° C | 67% | 968.6 hPa | - | - | - | - |
| 1777933076 | 17.22° C | 67% | 968.6 hPa | - | - | - | - |
| 1777932176 | 17.22° C | 66% | 968.7 hPa | - | - | - | - |
| 1777931276 | 16.67° C | 67% | 967.9 hPa | - | - | - | - |
| 1777930375 | 17.22° C | 66% | 968.7 hPa | - | - | - | - |
| 1777929475 | 17.22° C | 66% | 968.7 hPa | - | - | - | - |
| 1777928575 | 17.22° C | 66% | 968.8 hPa | - | - | - | - |
| 1777927675 | 17.22° C | 65% | 968.8 hPa | - | - | - | - |
| 1777926775 | 17.22° C | 65% | 968.1 hPa | - | - | - | - |
| 1777925875 | 17.78° C | 64% | 969.1 hPa | - | - | - | - |
| 1777924974 | 17.22° C | 63% | 968.3 hPa | - | - | - | - |
| 1777924074 | 17.78° C | 63% | 969 hPa | - | - | - | - |
| 1777923174 | 17.78° C | 62% | 968.9 hPa | - | - | - | - |
| 1777922274 | 17.78° C | 63% | 968.7 hPa | - | - | - | - |
| 1777921374 | 17.78° C | 62% | 968.5 hPa | - | - | - | - |
| 1777920474 | 17.78° C | 61% | 968.3 hPa | - | - | - | - |
| 1777919573 | 18.33° C | 61% | 968.4 hPa | - | - | - | - |
| 1777918673 | 17.78° C | 60% | 967.4 hPa | - | - | - | - |
| 1777917773 | 18.33° C | 61% | 968.2 hPa | - | - | - | - |
| 1777916873 | 18.33° C | 60% | 967.5 hPa | - | - | - | - |
* Rain since midnight (hover to see other rain measurements)
** Current wind speed in m/s (hover to see current wind gust speed)